Fort Sumner, NM

6:52 PM MDT on October 20, 2014 (GMT -0600)
Lake Sumner Village | Change Station
CLOSE
Current Station
Personal Weather Station
Location: Fort Sumner, NM
Elevation: 4362 ft
Nearby Weather Stations

Elev 4362 ft 34.62 °N, 104.40 °W | Updated 0 second ago

Mostly Cloudy
Mostly Cloudy
61.9 °F
Feels Like 61.9 °F
N
10.0
Wind Variable Wind from East
Gusts 21.0 mph

Today
High -- | Low -- °F
--% Chance of Precip.
Yesterday
High -- | Low -- °F
Precip. -- in
7:06 AM 6:16 PM
Waning Crescent, 8% visible
Pressure 30.16 in
Visibility 10.0 miles
Clouds Mostly Cloudy 3700 ft
Dew Point 52 °F
Humidity 71%
Rainfall 0.31 in
Snow Depth Not available.
UV 0 out of 12
Pollen 4.30 out of 12
Air Quality Not available.
Flu Activity Sporadic
SPECI K4MR 210011Z AUTO 23003KT 10SM SHRA BKN037 15/11 A3016 RMK AO2

More Conditions Fewer Conditions

Pressure 30.16 in
Visibility 10.0 miles
Clouds Mostly Cloudy 3700 ft
Dew Point 52 °F
Humidity 71%
Rainfall 0.31 in
Snow Depth Not available.
UV 0 out of 12
Pollen 4.30 out of 12
Air Quality Not available.
Flu Activity Sporadic
SPECI K4MR 210011Z AUTO 23003KT 10SM SHRA BKN037 15/11 A3016 RMK AO2

More Conditions Fewer Conditions

Nowcast | as of 5:50 PM MDT on October 20, 2014

Scattered showers and thunderstorms will continue across east central and southeast New Mexico through the evening hours. Through 8 PM...storms will continue to move toward the northwest around 10 to 15 mph and will be capable of heavy rainfall...small hail... occasional cloud to ground lightning and wind gusts to 45 mph. Rainfall amounts between one tenth and one half of an inch are likely...and localized areas may see upwards of three quarters of an inch. Areas that will be affected include Vaughn...Ramon...Mesa... Roswell...Lake Arthur...Hagerman...Portales...Melrose...and house.

×

10-Day Weather Forecast

Almanac

Astronomy

Oct. 20, 2014 Rise Set
Actual Time 7:06 AM MDT 6:16 PM MDT
Civil Twilight 6:41 AM MDT 6:41 PM MDT
Nautical Twilight 6:11 AM MDT 7:11 PM MDT
Astronomical Twilight 5:42 AM MDT 7:40 PM MDT
Moon 4:05 AM MDT (10/20) 4:33 PM MDT (10/20)
Length of Visible Light 12h 00m
Length of Day
11h 09m
Tomorrow will be 2m 1s shorter.
Waning Crescent, 8% of the Moon is Illuminated
Today
Waning Crescent
Oct 23
New
Oct 30
First Quarter
Nov 6
Full
Nov 14
Last Quarter

Today's Extremes

State Highs State Lows

Community

WunderPhotos

Upload Photos

1,763,565 photos uploaded!

Nearby

Snow Depth

Station Depth Elevation
Sierra Blanca 0 in 10280 ft
Wesner Springs 3 in 11120 ft
Elk Cabin 0 in 8210 ft
Santa Fe 0 in 11445 ft
Gallegos Peak 0 in 9800 ft

Earthquake Activity

City Distance Mag. Time & Date
No recent earthquake activity has been reported nearby.
Minimum magnitude displayed is 2.5.

Coastal Water Temperatures

Place Temperature
No Stations Reporting

Nearby Weather Stations